Time;durP1;ratioP1;P1;durP2;ratioP2;P2;SDS_P1;SDS_P2;PMS_P1;PMS_P2;Temp;Humidity;BMP_temperature;BMP_pressure;BME280_temperature;BME280_humidity;BME280_pressure;Samples;Min_cycle;Max_cycle;Signal;HPM_P1;HPM_P2
2021/05/27 00:01:14;;;;;;;15.60;9.70;;;;;;;14.30;96.66;100336.95;1746382;81;21037;-77
2021/05/27 00:03:42;;;;;;;10.95;9.73;;;;;;;14.33;96.68;100332.81;1763089;81;21602;-77
2021/05/27 00:06:09;;;;;;;10.80;9.70;;;;;;;14.34;96.54;100333.22;1763653;81;21084;-76
2021/05/27 00:08:37;;;;;;;14.30;10.03;;;;;;;14.34;96.44;100325.27;1766025;79;21060;-77
2021/05/27 00:11:04;;;;;;;12.47;9.80;;;;;;;14.35;96.44;100328.30;1766207;81;21418;-78
2021/05/27 00:13:31;;;;;;;12.75;9.88;;;;;;;14.36;96.42;100330.03;1767373;80;21114;-80
2021/05/27 00:15:59;;;;;;;10.75;9.65;;;;;;;14.33;96.50;100327.52;1769244;80;21590;-77
2021/05/27 00:18:27;;;;;;;12.47;10.23;;;;;;;14.29;96.76;100324.65;1746858;81;21117;-76
2021/05/27 00:20:54;;;;;;;11.80;9.88;;;;;;;14.27;96.97;100326.03;1736966;82;21098;-77
2021/05/27 00:23:21;;;;;;;11.65;9.53;;;;;;;14.28;97.08;100325.09;1736972;82;21174;-79
2021/05/27 00:25:48;;;;;;;13.40;9.25;;;;;;;14.31;97.01;100328.52;1736909;82;21760;-78
2021/05/27 00:28:15;;;;;;;12.30;9.35;;;;;;;14.29;96.97;100332.59;1732945;80;78078;-84
2021/05/27 00:30:42;;;;;;;13.22;9.40;;;;;;;14.31;97.05;100329.41;1709191;82;21189;-83
2021/05/27 00:33:10;;;;;;;14.83;10.40;;;;;;;14.33;97.10;100322.69;1711703;82;21059;-82
2021/05/27 00:35:37;;;;;;;13.78;9.75;;;;;;;14.34;97.33;100324.42;1714885;82;21031;-83
2021/05/27 00:38:04;;;;;;;12.63;9.30;;;;;;;14.35;97.42;100322.15;1703049;84;21381;-84
2021/05/27 00:40:31;;;;;;;11.05;9.75;;;;;;;14.35;97.44;100321.67;1712737;82;21373;-83
2021/05/27 00:42:59;;;;;;;10.72;8.88;;;;;;;14.39;97.43;100321.92;1704513;84;21145;-84
2021/05/27 00:45:27;;;;;;;15.23;9.78;;;;;;;14.40;97.48;100321.00;1707528;84;21710;-84
2021/05/27 00:47:55;;;;;;;11.48;9.15;;;;;;;14.41;97.46;100325.35;1704601;84;21138;-85
2021/05/27 00:50:23;;;;;;;12.37;9.30;;;;;;;14.43;97.45;100323.48;1707608;84;21110;-83
2021/05/27 00:52:52;;;;;;;13.08;9.30;;;;;;;14.46;97.32;100328.63;1705104;84;21008;-84
2021/05/27 00:55:23;;;;;;;10.58;9.48;;;;;;;14.50;97.18;100325.84;1716512;82;21082;-84
2021/05/27 00:57:50;;;;;;;12.55;9.85;;;;;;;14.50;97.16;100318.74;1709135;84;21227;-84
2021/05/27 01:00:21;;;;;;;10.75;9.40;;;;;;;14.52;97.06;100318.67;1707289;84;21090;-83
2021/05/27 01:02:48;;;;;;;13.05;9.78;;;;;;;14.54;96.97;100312.80;1707012;84;21106;-83
2021/05/27 01:05:15;;;;;;;10.45;9.35;;;;;;;14.55;96.92;100318.55;1707092;84;21100;-85
2021/05/27 01:07:45;;;;;;;11.35;8.78;;;;;;;14.55;96.81;100315.89;1707051;84;21121;-84
2021/05/27 01:10:14;;;;;;;11.45;8.75;;;;;;;14.55;96.78;100314.09;1707016;84;21078;-84
2021/05/27 01:12:41;;;;;;;10.00;9.00;;;;;;;14.58;96.74;100317.91;1706938;84;21580;-83
2021/05/27 01:15:28;;;;;;;11.40;9.35;;;;;;;14.60;96.57;100314.71;1708927;84;21062;-85
2021/05/27 01:17:59;;;;;;;10.75;8.33;;;;;;;14.62;96.42;100313.32;1682949;84;21161;-86
2021/05/27 01:20:29;;;;;;;15.78;9.70;;;;;;;14.64;96.31;100316.75;1707382;84;21122;-83
2021/05/27 01:22:57;;;;;;;13.05;8.63;;;;;;;14.63;96.09;100309.72;1721899;81;26654;-84
2021/05/27 01:25:24;;;;;;;16.17;8.80;;;;;;;14.63;96.02;100312.37;1760077;81;21142;-84
2021/05/27 01:27:50;;;;;;;12.63;9.20;;;;;;;14.62;95.81;100311.52;1737472;81;21593;-84
2021/05/27 01:30:22;;;;;;;13.93;8.93;;;;;;;14.60;95.66;100313.86;1707013;84;21069;-86
2021/05/27 01:32:49;;;;;;;10.70;9.25;;;;;;;14.58;95.65;100307.78;1707287;84;21099;-85
2021/05/27 01:35:20;;;;;;;11.03;8.98;;;;;;;14.59;95.70;100317.46;1706921;84;21067;-83
2021/05/27 01:37:47;;;;;;;10.55;9.38;;;;;;;14.56;95.68;100317.59;1706957;83;21170;-84
2021/05/27 01:40:17;;;;;;;14.15;9.40;;;;;;;14.53;95.61;100315.08;1706964;84;21273;-84
2021/05/27 01:42:47;;;;;;;13.85;10.43;;;;;;;14.52;95.59;100317.35;1706391;83;21568;-86
2021/05/27 01:45:14;;;;;;;12.13;10.18;;;;;;;14.50;95.62;100312.59;1750225;82;21126;-85
2021/05/27 01:47:42;;;;;;;13.83;10.82;;;;;;;14.49;95.74;100317.01;1749999;81;21567;-84
2021/05/27 01:50:19;;;;;;;16.70;11.68;;;;;;;14.51;96.00;100314.30;1750205;82;21123;-84
2021/05/27 01:52:42;;;;;;;16.23;12.70;;;;;;;14.52;96.25;100312.05;1749096;81;21115;-84
2021/05/27 01:55:10;;;;;;;12.63;10.93;;;;;;;14.52;96.29;100310.73;1750125;82;21613;-84
2021/05/27 01:57:37;;;;;;;12.05;9.55;;;;;;;14.54;96.24;100314.13;1749824;82;21596;-86
2021/05/27 02:00:07;;;;;;;10.63;8.75;;;;;;;14.55;96.26;100302.64;1749752;82;21071;-86
2021/05/27 02:02:36;;;;;;;13.98;8.45;;;;;;;14.56;96.04;100313.62;1748959;81;21166;-85
2021/05/27 02:05:04;;;;;;;10.25;8.15;;;;;;;14.56;95.80;100309.64;1749735;82;21067;-84
2021/05/27 02:07:34;;;;;;;10.60;9.08;;;;;;;14.56;95.67;100305.67;1749874;82;21075;-85
2021/05/27 02:10:02;;;;;;;10.32;8.68;;;;;;;14.54;95.69;100315.45;1750126;81;21119;-84
2021/05/27 02:12:31;;;;;;;11.30;9.10;;;;;;;14.54;95.73;100312.80;1749413;81;21067;-85
2021/05/27 02:14:58;;;;;;;10.98;9.18;;;;;;;14.52;95.84;100317.35;1750400;82;21040;-84
2021/05/27 02:17:25;;;;;;;14.85;10.58;;;;;;;14.52;95.91;100313.38;1750131;82;21102;-84
2021/05/27 02:19:53;;;;;;;14.55;9.70;;;;;;;14.53;96.05;100315.08;1750251;82;21656;-85
2021/05/27 02:22:20;;;;;;;11.03;9.23;;;;;;;14.52;96.17;100314.23;1750794;82;21121;-85
2021/05/27 02:24:52;;;;;;;12.35;9.63;;;;;;;14.51;96.33;100315.14;1751019;81;21036;-86
2021/05/27 02:27:19;;;;;;;12.82;10.40;;;;;;;14.50;96.45;100311.27;1754250;81;21071;-86
2021/05/27 02:29:47;;;;;;;13.53;11.57;;;;;;;14.52;96.48;100310.73;1767844;78;21070;-84
2021/05/27 02:32:15;;;;;;;18.07;12.63;;;;;;;14.51;96.57;100311.64;1743054;81;21053;-84
2021/05/27 02:34:43;;;;;;;13.65;11.55;;;;;;;14.50;96.70;100308.14;1765952;81;21098;-84
2021/05/27 02:37:10;;;;;;;15.58;12.05;;;;;;;14.53;96.78;100304.48;1765756;81;21142;-84
2021/05/27 02:39:39;;;;;;;19.02;12.70;;;;;;;14.56;96.79;100299.05;1736298;78;76305;-69
2021/05/27 02:42:07;;;;;;;16.85;12.05;;;;;;;14.60;96.87;100308.56;1747021;81;21052;-71
2021/05/27 02:44:34;;;;;;;17.40;12.05;;;;;;;14.62;96.90;100308.02;1729587;83;21090;-73
2021/05/27 02:47:02;;;;;;;12.93;10.72;;;;;;;14.63;96.82;100304.42;1732300;83;21131;-74
2021/05/27 02:49:30;;;;;;;13.80;11.05;;;;;;;14.67;96.83;100300.68;1732214;83;21074;-71
2021/05/27 02:51:58;;;;;;;17.02;12.60;;;;;;;14.71;96.77;100307.55;1719623;83;21076;-72
2021/05/27 02:54:29;;;;;;;18.82;12.78;;;;;;;14.77;96.71;100305.03;1704041;79;21084;-73
2021/05/27 02:56:59;;;;;;;19.65;12.33;;;;;;;14.83;96.70;100297.63;1665042;85;21152;-72
2021/05/27 02:59:27;;;;;;;20.50;15.40;;;;;;;14.91;96.54;100297.25;1666366;86;21154;-72
2021/05/27 03:02:53;;;;;;;19.20;15.45;;;;;;;14.99;96.47;100290.20;1765648;79;23271;-73
2021/05/27 03:05:21;;;;;;;22.10;16.90;;;;;;;14.95;96.65;100290.82;1686823;83;21056;-74
2021/05/27 03:07:48;;;;;;;20.50;15.48;;;;;;;14.99;96.75;100286.22;1714100;81;21172;-83
2021/05/27 03:10:17;;;;;;;17.17;13.95;;;;;;;15.09;96.89;100294.06;1642371;83;21031;-83
2021/05/27 03:12:47;;;;;;;16.75;13.95;;;;;;;15.21;96.87;100291.26;1684534;85;21130;-80
2021/05/27 03:15:15;;;;;;;21.00;14.15;;;;;;;15.33;96.59;100287.94;1684445;85;21111;-80
2021/05/27 03:17:43;;;;;;;19.75;16.87;;;;;;;15.44;96.18;100288.20;1686731;83;20966;-79
2021/05/27 03:20:11;;;;;;;20.30;15.85;;;;;;;15.52;95.92;100291.76;1712592;83;21083;-79
2021/05/27 03:22:46;;;;;;;21.93;17.07;;;;;;;15.59;95.84;100285.17;1711964;81;21091;-77
2021/05/27 03:25:14;;;;;;;19.20;16.23;;;;;;;15.70;95.84;100286.79;1675501;85;20980;-69
2021/05/27 03:27:42;;;;;;;17.23;14.80;;;;;;;15.84;95.84;100286.49;1679019;85;21113;-70
2021/05/27 03:30:13;;;;;;;16.35;14.05;;;;;;;15.95;95.60;100285.42;1662553;85;21075;-71
2021/05/27 03:32:40;;;;;;;19.10;15.58;;;;;;;16.10;95.20;100288.53;1655930;86;21108;-72
2021/05/27 03:35:10;;;;;;;17.70;14.58;;;;;;;16.26;94.69;100280.98;1689483;85;21036;-70
2021/05/27 03:37:39;;;;;;;16.25;13.08;;;;;;;16.44;94.51;100279.91;1654748;86;21087;-70
2021/05/27 03:40:12;;;;;;;16.35;14.23;;;;;;;16.66;93.80;100278.66;1687900;85;21038;-68
2021/05/27 03:42:54;;;;;;;13.88;11.68;;;;;;;16.87;92.46;100274.72;1687450;85;21114;-69
2021/05/27 03:45:27;;;;;;;14.98;12.98;;;;;;;17.09;91.76;100281.37;1685978;84;21110;-71
2021/05/27 03:47:55;;;;;;;18.05;12.73;;;;;;;17.27;90.01;100276.23;1666204;85;21075;-71
2021/05/27 03:50:25;;;;;;;18.42;13.30;;;;;;;17.32;89.11;100272.84;1668381;82;21111;-76
2021/05/27 03:52:53;;;;;;;17.90;13.25;;;;;;;17.35;88.57;100283.28;1694175;83;21111;-75
2021/05/27 03:55:21;;;;;;;19.35;13.05;;;;;;;17.30;88.30;100277.39;1696066;83;21138;-74
2021/05/27 03:57:49;;;;;;;21.37;11.78;;;;;;;17.28;88.43;100275.30;1694587;84;21103;-75
2021/05/27 04:00:46;;;;;;;12.82;11.40;;;;;;;17.31;88.32;100275.58;1693984;84;21154;-78
2021/05/27 04:03:13;;;;;;;16.60;11.85;;;;;;;17.34;88.16;100280.22;1692598;84;21533;-75
2021/05/27 04:08:28;;;;;;;14.18;11.65;;;;;;;17.44;87.99;100284.97;1669292;85;21124;-75
2021/05/27 04:10:57;;;;;;;14.80;11.33;;;;;;;17.55;87.68;100278.48;1672715;85;21190;-74
2021/05/27 04:13:25;;;;;;;13.98;12.45;;;;;;;17.67;87.18;100273.73;1672515;86;21154;-73
2021/05/27 04:15:52;;;;;;;12.73;11.35;;;;;;;17.79;86.49;100270.27;1672734;86;21018;-74
2021/05/27 04:18:22;;;;;;;15.50;12.63;;;;;;;17.90;86.07;100267.39;1673309;84;21069;-75
2021/05/27 04:20:54;;;;;;;16.27;12.88;;;;;;;18.04;85.18;100280.69;1684425;81;21101;-81
2021/05/27 04:23:37;;;;;;;16.60;12.97;;;;;;;18.22;84.55;100271.93;1701255;82;21186;-80
2021/05/27 04:26:07;;;;;;;13.53;11.70;;;;;;;18.39;83.76;100270.83;1664065;84;21099;-80
2021/05/27 04:28:36;;;;;;;15.20;11.43;;;;;;;18.58;82.88;100266.42;1700177;82;21167;-80
2021/05/27 04:31:12;;;;;;;12.82;11.05;;;;;;;18.77;81.96;100263.38;1697319;84;21089;-80
2021/05/27 04:33:54;;;;;;;13.28;11.35;;;;;;;19.00;81.30;100265.77;1697490;83;21963;-78
2021/05/27 04:36:21;;;;;;;15.43;11.18;;;;;;;19.27;80.20;100261.16;1667134;80;21109;-74
2021/05/27 04:38:49;;;;;;;15.48;11.83;;;;;;;19.55;78.58;100265.00;1634644;86;21000;-74
2021/05/27 04:41:18;;;;;;;13.88;12.13;;;;;;;19.80;77.84;100254.27;1636646;84;20945;-74
2021/05/27 04:43:52;;;;;;;14.23;12.28;;;;;;;20.05;76.58;100255.13;1636842;84;21071;-72
2021/05/27 04:46:17;;;;;;;18.77;12.53;;;;;;;20.22;75.57;100260.53;1636177;87;21094;-73
2021/05/27 04:48:45;;;;;;;12.20;10.68;;;;;;;20.28;74.55;100267.61;1634262;86;20996;-70
2021/05/27 04:51:13;;;;;;;14.23;9.58;;;;;;;20.43;74.49;100258.05;1661290;82;21114;-77
2021/05/27 04:53:41;;;;;;;14.18;9.65;;;;;;;20.64;73.35;100257.80;1686540;83;21124;-75
2021/05/27 04:56:08;;;;;;;15.43;10.13;;;;;;;20.79;72.33;100258.42;1690271;83;21128;-78
2021/05/27 04:58:36;;;;;;;19.75;11.18;;;;;;;20.99;71.71;100264.06;1690259;83;21752;-75
2021/05/27 05:01:03;;;;;;;13.50;10.58;;;;;;;21.20;70.79;100262.84;1675792;84;21335;-79
2021/05/27 05:03:29;;;;;;;14.43;10.88;;;;;;;21.44;70.05;100268.09;1668572;85;21699;-71
2021/05/27 05:05:57;;;;;;;12.95;10.85;;;;;;;21.71;68.72;100256.47;1682910;78;21058;-69
2021/05/27 05:08:24;;;;;;;12.55;10.55;;;;;;;21.97;67.12;100258.38;1757487;80;21524;-71
2021/05/27 05:10:51;;;;;;;18.32;10.08;;;;;;;22.28;66.68;100263.88;1760880;81;21025;-71
2021/05/27 05:13:21;;;;;;;11.88;9.75;;;;;;;22.62;65.85;100263.72;1762299;81;21097;-72
2021/05/27 05:15:57;;;;;;;12.37;9.78;;;;;;;22.83;64.84;100260.52;1757800;80;21106;-69
2021/05/27 05:18:28;;;;;;;11.88;9.68;;;;;;;23.01;63.07;100257.27;1758932;79;21620;-70
2021/05/27 05:20:57;;;;;;;11.65;8.75;;;;;;;23.03;62.69;100257.98;1740759;78;21175;-76
2021/05/27 05:23:26;;;;;;;12.20;8.18;;;;;;;22.98;61.79;100253.45;1681536;83;21080;-73
2021/05/27 05:25:53;;;;;;;12.70;8.63;;;;;;;22.87;61.57;100251.72;1682123;83;21829;-74
2021/05/27 05:28:20;;;;;;;9.05;7.80;;;;;;;22.75;60.95;100249.61;1677048;83;21094;-75
2021/05/27 05:30:47;;;;;;;11.00;6.95;;;;;;;22.60;61.15;100246.89;1682024;85;21743;-74
2021/05/27 05:33:14;;;;;;;8.40;7.60;;;;;;;22.69;60.96;100246.10;1682126;83;21105;-72
2021/05/27 05:35:41;;;;;;;11.08;9.95;;;;;;;22.83;60.12;100244.41;1688770;80;21243;-70
2021/05/27 05:38:08;;;;;;;22.77;11.70;;;;;;;22.95;60.58;100241.64;1687176;84;21307;-71
2021/05/27 05:40:36;;;;;;;10.72;8.93;;;;;;;23.09;60.65;100233.25;1693619;84;21108;-69
2021/05/27 05:43:03;;;;;;;10.75;9.20;;;;;;;23.32;59.61;100234.41;1685941;84;21012;-72
2021/05/27 05:45:30;;;;;;;15.95;12.18;;;;;;;23.19;59.25;100238.19;1685668;84;21081;-71
2021/05/27 05:47:59;;;;;;;21.95;13.93;;;;;;;23.04;59.26;100240.87;1665890;84;21153;-71
2021/05/27 05:50:47;;;;;;;15.70;13.35;;;;;;;22.85;59.89;100245.62;1666228;84;21063;-71
2021/05/27 05:53:19;;;;;;;21.30;12.93;;;;;;;22.62;60.56;100239.56;1668190;86;21715;-73
2021/05/27 05:55:47;;;;;;;15.75;11.80;;;;;;;22.43;61.03;100247.00;1661382;86;21148;-74
2021/05/27 05:58:14;;;;;;;18.62;12.10;;;;;;;22.41;60.98;100241.75;1686091;84;21140;-73
2021/05/27 06:00:41;;;;;;;15.68;12.50;;;;;;;22.45;60.72;100236.11;1689877;84;21152;-75
2021/05/27 06:03:08;;;;;;;14.25;11.25;;;;;;;22.64;60.33;100236.26;1683757;84;21112;-73
2021/05/27 06:05:50;;;;;;;17.02;11.45;;;;;;;22.94;60.10;100232.75;1673072;80;21269;-74
2021/05/27 06:08:21;;;;;;;15.60;11.45;;;;;;;23.38;58.57;100227.16;1758967;81;21024;-72
2021/05/27 06:10:49;;;;;;;19.20;11.78;;;;;;;23.75;58.34;100230.59;1759005;80;21038;-70
2021/05/27 06:13:18;;;;;;;16.95;11.18;;;;;;;23.97;56.43;100230.81;1757254;80;21115;-72
2021/05/27 06:15:47;;;;;;;12.40;8.80;;;;;;;24.08;55.99;100226.14;1755927;80;21126;-70
2021/05/27 06:18:15;;;;;;;14.78;11.50;;;;;;;24.37;54.77;100229.33;1738844;81;21040;-71
2021/05/27 06:20:45;;;;;;;16.50;10.72;;;;;;;24.61;53.47;100228.03;1696991;81;21017;-72
2021/05/27 06:23:15;;;;;;;14.75;10.35;;;;;;;24.75;53.48;100221.34;1710431;81;21079;-72
2021/05/27 06:25:42;;;;;;;18.67;11.80;;;;;;;24.90;53.12;100227.46;1724952;83;21012;-71
2021/05/27 06:28:09;;;;;;;17.30;11.73;;;;;;;25.06;51.57;100226.00;1713143;83;21021;-73
2021/05/27 06:30:36;;;;;;;20.25;13.10;;;;;;;25.12;51.46;100233.47;1638393;86;21089;-70
2021/05/27 06:33:06;;;;;;;15.32;12.10;;;;;;;25.06;51.55;100226.84;1654765;86;21041;-73
2021/05/27 06:35:42;;;;;;;23.20;12.63;;;;;;;24.93;51.77;100229.52;1713352;83;20971;-71
2021/05/27 06:38:13;;;;;;;18.07;10.88;;;;;;;25.06;51.21;100228.69;1725928;81;21636;-76
2021/05/27 06:40:38;;;;;;;16.65;10.40;;;;;;;25.23;51.30;100222.53;1736709;82;21671;-76
2021/05/27 06:43:04;;;;;;;13.58;11.05;;;;;;;25.68;49.60;100215.48;1728431;82;21363;-75
2021/05/27 06:45:31;;;;;;;17.92;12.13;;;;;;;25.87;49.36;100218.06;1749893;82;21032;-77
2021/05/27 06:47:58;;;;;;;18.80;10.58;;;;;;;25.92;49.35;100218.95;1750031;82;21092;-76
2021/05/27 06:53:17;;;;;;;14.95;11.95;;;;;;;25.64;47.40;100224.88;1684362;83;21042;-72
2021/05/27 06:55:47;;;;;;;14.43;10.65;;;;;;;25.12;48.92;100226.26;1670725;84;21041;-74
2021/05/27 06:58:14;;;;;;;14.03;11.08;;;;;;;24.87;49.64;100223.73;1674142;84;21140;-72
2021/05/27 07:00:41;;;;;;;12.28;10.32;;;;;;;24.87;50.06;100216.99;1683460;84;21044;-74
2021/05/27 07:03:11;;;;;;;18.10;11.48;;;;;;;25.22;49.96;100224.89;1666930;84;21059;-73
2021/05/27 07:05:46;;;;;;;14.83;10.90;;;;;;;25.45;48.79;100225.84;1672333;84;21104;-72
2021/05/27 07:08:14;;;;;;;17.45;10.45;;;;;;;25.11;49.69;100227.23;1660833;85;21669;-75
2021/05/27 07:10:41;;;;;;;18.15;10.90;;;;;;;24.76;51.24;100222.55;1657398;85;21075;-76
2021/05/27 07:13:08;;;;;;;12.50;10.80;;;;;;;24.63;51.39;100227.40;1623840;86;21149;-77
2021/05/27 07:15:36;;;;;;;13.18;10.28;;;;;;;24.35;51.70;100225.08;1648450;86;21066;-77
2021/05/27 07:18:04;;;;;;;19.32;11.85;;;;;;;24.17;52.48;100223.09;1663732;86;21226;-75
2021/05/27 07:20:31;;;;;;;19.70;11.93;;;;;;;23.91;53.01;100214.75;1645841;86;21240;-77
2021/05/27 07:22:58;;;;;;;18.85;11.63;;;;;;;23.88;53.72;100216.39;1721326;80;21045;-72
2021/05/27 07:25:25;;;;;;;17.32;12.05;;;;;;;24.02;54.21;100218.66;1692255;83;21053;-71
2021/05/27 07:27:53;;;;;;;23.57;13.95;;;;;;;24.15;53.50;100213.47;1667367;85;21718;-74
2021/05/27 07:30:21;;;;;;;16.37;11.57;;;;;;;24.17;53.39;100206.11;1665098;84;21150;-74
2021/05/27 07:32:49;;;;;;;20.23;13.05;;;;;;;24.02;53.13;100209.74;1689796;83;21041;-73
2021/05/27 07:35:15;;;;;;;16.30;11.00;;;;;;;23.83;54.23;100211.91;1690647;83;21061;-71
2021/05/27 07:37:51;;;;;;;14.85;12.47;;;;;;;23.50;54.98;100219.33;1682557;79;21099;-77
2021/05/27 07:40:21;;;;;;;19.65;11.05;;;;;;;23.18;55.83;100212.80;1733833;81;21101;-77
2021/05/27 07:42:48;;;;;;;21.23;12.13;;;;;;;23.06;55.90;100217.42;1709322;82;21776;-77
2021/05/27 07:45:16;;;;;;;21.73;11.80;;;;;;;22.98;56.42;100221.23;1702897;83;21160;-76
2021/05/27 07:47:44;;;;;;;16.55;11.55;;;;;;;22.91;56.73;100217.38;1708428;82;21116;-77
2021/05/27 07:50:13;;;;;;;18.37;11.85;;;;;;;23.04;57.20;100203.27;1690659;82;21113;-77
2021/05/27 07:52:39;;;;;;;20.57;11.45;;;;;;;23.22;56.85;100204.33;1690325;78;21148;-72
2021/05/27 07:55:07;;;;;;;25.92;11.70;;;;;;;23.42;56.72;100208.40;1672645;84;21473;-72
2021/05/27 07:57:35;;;;;;;15.40;11.25;;;;;;;23.48;56.00;100203.83;1660666;83;21111;-73
2021/05/27 08:00:04;;;;;;;13.85;9.05;;;;;;;23.46;56.30;100208.48;1652506;86;21147;-71
2021/05/27 08:02:32;;;;;;;;;;;;;;;23.28;55.20;100207.45;1663806;86;21477;-70
2021/05/27 08:04:59;;;;;;;15.83;10.45;;;;;;;23.06;55.63;100201.30;1662408;86;20276;-73
2021/05/27 08:07:28;;;;;;;18.00;11.97;;;;;;;22.86;56.79;100207.54;1654318;80;21078;-77
2021/05/27 08:09:56;;;;;;;19.02;11.60;;;;;;;23.06;57.16;100203.99;1654049;86;21620;-77
2021/05/27 08:12:23;;;;;;;13.15;9.60;;;;;;;23.41;56.09;100194.62;1661657;86;21533;-75
2021/05/27 08:14:50;;;;;;;13.72;9.68;;;;;;;23.76;53.42;100195.98;1659860;86;21068;-76
2021/05/27 08:17:18;;;;;;;11.88;9.13;;;;;;;24.02;53.31;100194.45;1656321;86;21087;-78
2021/05/27 08:19:45;;;;;;;10.80;8.53;;;;;;;24.26;52.86;100187.77;1658694;86;21125;-76
2021/05/27 08:22:14;;;;;;;16.12;10.78;;;;;;;24.55;51.96;100189.09;1684515;80;21007;-74
2021/05/27 08:24:42;;;;;;;15.70;9.25;;;;;;;25.01;51.42;100185.19;1709103;80;21117;-73
2021/05/27 08:27:09;;;;;;;12.55;7.55;;;;;;;25.31;48.66;100182.22;1701505;82;21073;-72
2021/05/27 08:29:36;;;;;;;14.98;9.90;;;;;;;25.45;48.25;100179.51;1700999;82;20982;-72
2021/05/27 08:32:07;;;;;;;12.13;9.95;;;;;;;25.30;48.35;100173.77;1696088;82;22013;-73
2021/05/27 08:34:34;;;;;;;13.00;10.58;;;;;;;25.09;49.59;100179.89;1679212;85;21112;-72
2021/05/27 08:37:01;;;;;;;16.00;11.00;;;;;;;25.04;49.53;100176.80;1691050;81;21101;-74
2021/05/27 08:39:29;;;;;;;19.62;11.73;;;;;;;25.03;49.61;100172.39;1658487;84;21080;-73
2021/05/27 08:41:57;;;;;;;15.18;9.25;;;;;;;25.07;49.47;100169.25;1641845;83;21088;-74
2021/05/27 08:44:24;;;;;;;15.35;10.95;;;;;;;25.19;49.14;100176.69;1632361;86;21156;-74
2021/05/27 08:46:52;;;;;;;14.07;11.75;;;;;;;25.11;50.15;100167.95;1647618;86;21276;-74
2021/05/27 08:49:19;;;;;;;11.40;8.83;;;;;;;25.09;50.28;100174.50;1654379;83;21146;-74
2021/05/27 08:51:50;;;;;;;15.72;10.20;;;;;;;24.97;48.73;100167.62;1649423;79;21048;-73
2021/05/27 08:54:19;;;;;;;14.35;9.90;;;;;;;24.88;48.71;100170.19;1636253;86;21030;-73
2021/05/27 08:56:46;;;;;;;14.18;10.75;;;;;;;24.68;49.01;100176.14;1662018;84;21119;-72
2021/05/27 08:59:14;;;;;;;15.32;10.90;;;;;;;24.52;50.03;100173.72;1676653;84;21071;-71
2021/05/27 09:02:07;;;;;;;13.80;10.08;;;;;;;24.43;50.71;100169.55;1663534;86;21087;-72
2021/05/27 09:04:34;;;;;;;16.52;11.50;;;;;;;24.22;50.89;100189.03;1664274;86;21095;-69
2021/05/27 09:07:13;;;;;;;16.07;11.50;;;;;;;24.10;52.27;100182.13;1677181;79;21119;-73
2021/05/27 09:09:56;;;;;;;16.52;11.15;;;;;;;24.01;52.29;100169.86;1662533;84;21107;-75
2021/05/27 09:12:30;;;;;;;13.72;9.53;;;;;;;24.02;52.63;100181.50;1684735;84;21680;-73
2021/05/27 09:15:01;;;;;;;17.42;10.30;;;;;;;24.00;50.78;100172.22;1658481;84;21176;-76
2021/05/27 09:17:48;;;;;;;17.62;11.30;;;;;;;23.98;52.07;100176.88;1673172;84;21091;-73
2021/05/27 09:20:24;;;;;;;15.18;9.93;;;;;;;23.96;52.39;100174.83;1705034;83;21055;-74
2021/05/27 09:23:21;;;;;;;15.50;10.48;;;;;;;23.91;51.49;100174.91;1670271;80;21635;-68
2021/05/27 09:25:58;;;;;;;10.95;9.23;;;;;;;23.83;51.69;100175.60;1633153;87;21152;-69
2021/05/27 09:28:31;;;;;;;15.53;10.85;;;;;;;23.66;51.76;100183.34;1628118;87;21072;-70
2021/05/27 09:31:08;;;;;;;17.80;8.93;;;;;;;23.62;52.31;100172.51;1607791;87;21060;-71
2021/05/27 09:33:44;;;;;;;12.73;9.03;;;;;;;23.66;51.28;100167.21;1634116;87;21092;-70
2021/05/27 09:36:14;;;;;;;23.42;9.63;;;;;;;23.82;51.48;100176.10;1633875;86;21140;-73
2021/05/27 09:39:05;;;;;;;13.18;9.00;;;;;;;23.93;50.95;100168.40;1652637;84;21067;-73
2021/05/27 09:41:34;;;;;;;11.37;7.93;;;;;;;24.23;50.82;100163.84;1669255;85;21768;-75
2021/05/27 09:44:08;;;;;;;8.95;7.30;;;;;;;24.39;48.75;100158.71;1659549;86;21122;-74
2021/05/27 09:46:55;;;;;;;11.53;8.20;;;;;;;24.37;48.54;100155.31;1653059;85;21111;-74
2021/05/27 09:49:23;;;;;;;12.33;8.48;;;;;;;24.37;49.12;100156.66;1638061;87;22160;-74
2021/05/27 09:51:55;;;;;;;9.80;8.48;;;;;;;24.34;49.08;100165.03;1669477;80;21610;-71
2021/05/27 09:54:24;;;;;;;12.18;9.05;;;;;;;24.27;49.42;100154.47;1645669;87;21087;-71
2021/05/27 09:56:52;;;;;;;11.68;7.95;;;;;;;24.25;49.83;100152.45;1701399;83;21106;-70
2021/05/27 09:59:20;;;;;;;13.98;8.23;;;;;;;24.12;49.92;100145.16;1701260;83;21124;-73
2021/05/27 10:02:17;;;;;;;13.10;7.90;;;;;;;23.97;49.71;100150.99;1700441;83;21074;-71
2021/05/27 10:04:59;;;;;;;25.43;8.58;;;;;;;23.77;50.07;100149.30;1677833;84;21128;-72
2021/05/27 10:07:46;;;;;;;13.20;8.50;;;;;;;23.67;50.68;100154.61;1664179;80;21041;-76
2021/05/27 10:10:17;;;;;;;17.37;7.60;;;;;;;23.70;51.56;100160.23;1700817;83;21282;-77
2021/05/27 10:12:47;;;;;;;15.20;8.45;;;;;;;23.88;50.26;100154.53;1687565;84;21125;-76
2021/05/27 10:15:16;;;;;;;12.88;7.87;;;;;;;24.15;50.09;100161.01;1687411;84;21867;-78
2021/05/27 10:17:46;;;;;;;12.28;7.85;;;;;;;24.24;49.44;100149.38;1693181;83;21272;-75
2021/05/27 10:20:20;;;;;;;10.58;7.70;;;;;;;24.33;49.60;100148.52;1703204;83;21110;-76
2021/05/27 10:22:49;;;;;;;9.53;7.25;;;;;;;24.20;49.55;100147.97;1700448;81;21097;-72
2021/05/27 10:25:17;;;;;;;10.68;7.30;;;;;;;23.91;49.60;100147.52;1696359;83;22131;-70
2021/05/27 10:27:48;;;;;;;14.83;8.53;;;;;;;23.66;50.02;100153.77;1699413;83;21101;-72
2021/05/27 10:30:18;;;;;;;13.28;8.08;;;;;;;23.54;50.66;100145.49;1695505;83;21055;-70
2021/05/27 10:32:58;;;;;;;16.80;8.93;;;;;;;23.37;51.27;100143.48;1675279;84;21126;-72
2021/05/27 10:35:53;;;;;;;17.48;8.83;;;;;;;23.20;51.88;100135.61;1673691;84;21023;-66
2021/05/27 10:38:49;;;;;;;10.75;7.80;;;;;;;23.10;52.32;100139.63;1623033;82;21162;-72
2021/05/27 10:41:23;;;;;;;13.85;8.38;;;;;;;23.07;54.27;100138.53;1593166;88;21134;-74
2021/05/27 10:44:07;;;;;;;11.95;8.65;;;;;;;23.02;53.83;100130.04;1594932;88;21756;-73
2021/05/27 10:46:49;;;;;;;12.47;8.40;;;;;;;22.94;53.87;100136.57;1591770;89;21180;-76
2021/05/27 10:49:44;;;;;;;13.98;9.68;;;;;;;22.83;54.58;100137.02;1586874;90;21163;-75
2021/05/27 10:52:33;;;;;;;12.60;9.75;;;;;;;22.76;54.68;100139.89;1591912;85;21187;-77
2021/05/27 10:55:01;;;;;;;19.75;10.18;;;;;;;22.72;55.31;100134.42;1670261;85;21479;-78
2021/05/27 10:57:47;;;;;;;15.93;8.80;;;;;;;22.68;56.04;100132.14;1663523;85;21141;-79
2021/05/27 11:00:32;;;;;;;21.40;11.15;;;;;;;22.63;55.88;100133.89;1666295;85;21113;-77
2021/05/27 11:03:42;;;;;;;16.00;10.95;;;;;;;22.63;56.41;100124.49;1673448;85;21096;-77
2021/05/27 11:06:41;;;;;;;16.07;11.10;;;;;;;22.60;57.05;100127.45;1659236;86;21059;-78
2021/05/27 11:09:19;;;;;;;21.85;12.07;;;;;;;22.53;56.86;100123.61;1639040;83;21233;-75
2021/05/27 11:12:12;;;;;;;19.15;11.88;;;;;;;22.41;56.68;100123.69;1639206;86;21085;-76
2021/05/27 11:14:44;;;;;;;22.60;13.32;;;;;;;22.29;57.81;100124.77;1641519;86;21071;-78
2021/05/27 11:17:16;;;;;;;;;;;;;;;22.15;58.00;100125.88;1645539;86;21098;-77
2021/05/27 11:20:02;;;;;;;18.25;13.08;;;;;;;22.03;58.43;100126.95;1651202;86;20261;-76
2021/05/27 11:25:24;;;;;;;16.87;12.85;;;;;;;21.85;59.30;100123.98;1685714;83;21077;-76
2021/05/27 11:28:03;;;;;;;14.20;12.03;;;;;;;21.78;58.87;100126.33;1706189;83;21054;-75
2021/05/27 11:30:41;;;;;;;16.73;11.60;;;;;;;21.71;58.85;100122.96;1706891;83;21097;-74
2021/05/27 11:33:30;;;;;;;16.93;11.38;;;;;;;21.66;59.38;100123.84;1686794;85;21642;-75
2021/05/27 11:36:05;;;;;;;19.82;12.78;;;;;;;21.61;60.17;100128.25;1678939;85;21152;-74
2021/05/27 11:38:36;;;;;;;17.12;13.65;;;;;;;21.42;62.76;100134.28;1630328;81;21124;-72
2021/05/27 11:41:10;;;;;;;17.92;13.80;;;;;;;21.29;66.23;100125.52;1588070;89;21648;-71